Time;durP1;ratioP1;P1;durP2;ratioP2;P2;SDS_P1;SDS_P2;PMS_P1;PMS_P2;Temp;Humidity;BMP_temperature;BMP_pressure;BME280_temperature;BME280_humidity;BME280_pressure;Samples;Min_cycle;Max_cycle;Signal;HPM_P1;HPM_P2
2021/12/19 00:01:53;;;;;;;4.63;3.87;;;;;;;6.14;60.31;95192.78;5089593;28;20196;-74
2021/12/19 00:04:28;;;;;;;4.07;3.70;;;;;;;6.15;60.39;95196.94;5089451;28;20185;-75
2021/12/19 00:09:39;;;;;;;4.53;4.13;;;;;;;6.19;60.28;95207.72;5089403;28;20312;-73
2021/12/19 00:12:06;;;;;;;4.67;3.80;;;;;;;5.69;60.36;95133.84;5088973;28;20190;-73
2021/12/19 00:14:33;;;;;;;4.97;4.13;;;;;;;6.12;60.46;95206.47;5088711;28;20186;-73
2021/12/19 00:17:00;;;;;;;4.93;4.17;;;;;;;5.93;60.48;95182.28;5088947;28;20267;-74
2021/12/19 00:19:29;;;;;;;4.60;4.10;;;;;;;6.03;60.55;95201.06;5088686;28;20198;-77
2021/12/19 00:21:55;;;;;;;4.67;4.17;;;;;;;6.00;60.85;95201.28;5089300;28;20186;-73
2021/12/19 00:24:24;;;;;;;4.50;3.60;;;;;;;5.96;60.94;95202.38;5089068;28;20189;-74
2021/12/19 00:26:51;;;;;;;3.97;3.53;;;;;;;5.79;60.93;95179.78;5088862;28;20217;-74
2021/12/19 00:29:18;;;;;;;6.43;4.03;;;;;;;5.89;61.02;95200.28;5088916;28;20189;-73
2021/12/19 00:31:45;;;;;;;5.43;3.93;;;;;;;5.84;60.98;95192.97;5088575;28;20231;-75
2021/12/19 00:34:13;;;;;;;6.60;4.00;;;;;;;5.67;61.14;95163.59;5089166;28;20201;-76
2021/12/19 00:36:42;;;;;;;4.40;3.90;;;;;;;5.74;61.32;95187.66;5089213;28;20225;-73
2021/12/19 00:39:10;;;;;;;5.63;4.97;;;;;;;5.46;61.32;95144.63;5088137;28;20205;-74
2021/12/19 00:41:37;;;;;;;5.63;5.00;;;;;;;5.64;61.58;95175.63;5070386;28;20783;-76
2021/12/19 00:44:08;;;;;;;5.87;4.27;;;;;;;5.63;61.68;95191.78;5088646;28;20198;-74
2021/12/19 00:46:43;;;;;;;4.73;4.13;;;;;;;5.60;61.70;95189.44;5105414;28;20623;-74
2021/12/19 00:49:11;;;;;;;4.60;4.20;;;;;;;5.56;62.03;95196.41;5111824;28;20287;-74
2021/12/19 00:51:37;;;;;;;5.23;4.43;;;;;;;5.50;61.91;95192.53;5111297;28;20228;-79
2021/12/19 00:54:09;;;;;;;5.00;4.50;;;;;;;5.48;62.33;95183.38;5111825;28;20185;-74
2021/12/19 00:56:37;;;;;;;4.83;4.10;;;;;;;5.46;62.33;95180.13;5111777;28;20189;-74
2021/12/19 00:59:04;;;;;;;4.97;4.47;;;;;;;5.36;62.31;95163.88;5111678;28;20189;-73
2021/12/19 01:01:32;;;;;;;6.17;4.10;;;;;;;5.35;62.23;95165.56;5111244;28;20197;-75
2021/12/19 01:03:59;;;;;;;9.07;4.53;;;;;;;5.29;62.31;95164.22;5111511;28;20215;-73
2021/12/19 01:06:27;;;;;;;6.33;4.07;;;;;;;5.29;62.43;95161.69;5111206;28;20177;-80
2021/12/19 01:08:54;;;;;;;6.43;4.63;;;;;;;5.27;62.62;95160.19;5110859;28;20798;-73
2021/12/19 01:11:23;;;;;;;6.13;5.03;;;;;;;5.21;62.84;95152.94;5109680;28;20193;-75
2021/12/19 01:13:51;;;;;;;5.33;4.80;;;;;;;5.22;63.16;95163.00;5111356;28;20185;-76
2021/12/19 01:16:19;;;;;;;4.77;4.17;;;;;;;5.10;62.86;95145.19;5110580;28;20200;-73
2021/12/19 01:18:46;;;;;;;6.53;5.13;;;;;;;5.23;62.89;95159.53;5111099;28;20283;-75
2021/12/19 01:21:14;;;;;;;5.27;4.73;;;;;;;5.21;62.97;95148.66;5110509;28;20197;-75
2021/12/19 01:23:41;;;;;;;6.23;5.27;;;;;;;5.27;63.04;95155.09;5110471;28;20181;-79
2021/12/19 01:26:09;;;;;;;6.37;5.20;;;;;;;5.26;63.25;95149.19;5110595;28;20185;-75
2021/12/19 01:28:37;;;;;;;6.00;5.07;;;;;;;5.31;63.02;95154.00;5110649;28;20220;-75
2021/12/19 01:31:05;;;;;;;7.23;5.47;;;;;;;5.34;63.04;95137.78;5092378;28;20192;-74
2021/12/19 01:33:32;;;;;;;6.37;4.57;;;;;;;5.26;62.97;95118.75;5109999;28;20196;-76
2021/12/19 01:35:59;;;;;;;4.60;4.20;;;;;;;5.13;63.14;95094.28;5108677;28;20672;-73
2021/12/19 01:38:26;;;;;;;6.00;4.70;;;;;;;5.31;63.02;95121.03;5109960;28;20196;-74
2021/12/19 01:40:53;;;;;;;6.07;4.97;;;;;;;5.11;62.89;95084.25;5110822;28;20652;-74
2021/12/19 01:43:24;;;;;;;5.07;4.57;;;;;;;5.40;62.87;95128.06;5110154;28;20196;-73
2021/12/19 01:45:54;;;;;;;5.30;4.70;;;;;;;5.43;62.79;95127.06;5110667;28;20259;-73
2021/12/19 01:48:22;;;;;;;6.77;4.97;;;;;;;5.38;62.85;95112.13;5109663;28;20229;-73
2021/12/19 01:50:50;;;;;;;5.33;4.50;;;;;;;5.39;62.68;95110.41;5110476;28;20691;-74
2021/12/19 01:53:17;;;;;;;6.20;4.60;;;;;;;5.50;62.67;95129.13;5111203;28;20210;-73
2021/12/19 01:55:46;;;;;;;5.03;4.53;;;;;;;5.52;62.70;95124.75;5115248;28;20196;-73
2021/12/19 01:58:13;;;;;;;6.57;4.70;;;;;;;5.56;62.64;95127.09;5114673;28;20207;-74
2021/12/19 02:00:43;;;;;;;6.07;4.77;;;;;;;5.58;62.63;95117.69;5114790;28;20184;-80
2021/12/19 02:03:12;;;;;;;4.87;4.23;;;;;;;5.48;62.58;95092.06;5114681;28;20196;-74
2021/12/19 02:05:40;;;;;;;5.23;4.73;;;;;;;5.63;62.54;95113.13;5114907;28;20189;-74
2021/12/19 02:08:08;;;;;;;6.53;5.20;;;;;;;5.59;62.20;95091.41;5114774;28;20232;-74
2021/12/19 02:10:36;;;;;;;11.33;8.93;;;;;;;5.66;62.34;95111.22;5116626;28;20203;-81
2021/12/19 02:13:04;;;;;;;9.83;8.40;;;;;;;5.63;62.39;95097.91;5115708;28;20246;-79
2021/12/19 02:15:33;;;;;;;9.63;7.83;;;;;;;5.70;62.40;95102.50;5114590;28;20193;-80
2021/12/19 02:18:01;;;;;;;8.93;7.13;;;;;;;5.70;62.39;95097.44;5114604;28;20185;-79
2021/12/19 02:20:35;;;;;;;9.00;8.10;;;;;;;5.73;62.31;95102.28;5114307;28;20195;-79
2021/12/19 02:23:01;;;;;;;9.07;7.00;;;;;;;5.72;62.26;95102.41;5114642;28;20217;-82
2021/12/19 02:25:28;;;;;;;8.13;6.20;;;;;;;5.75;62.23;95099.66;5114123;28;20582;-77
2021/12/19 02:27:55;;;;;;;7.23;6.53;;;;;;;5.68;62.12;95088.28;5115302;28;20695;-78
2021/12/19 02:30:22;;;;;;;7.77;6.17;;;;;;;5.78;62.27;95102.78;5114009;28;20652;-74
2021/12/19 02:32:49;;;;;;;8.07;6.33;;;;;;;5.79;62.18;95096.84;5114831;28;20767;-78
2021/12/19 02:35:21;;;;;;;8.67;6.83;;;;;;;5.65;61.97;95071.50;5114310;28;20201;-75
2021/12/19 02:48:07;;;;;;;12.70;9.10;;;;;;;5.82;62.14;95098.34;5110026;28;20191;-79
2021/12/19 02:48:50;;;;;;;8.47;7.23;;;;;;;5.58;62.46;95051.72;5113513;28;20587;-77
2021/12/19 02:51:18;;;;;;;8.27;7.47;;;;;;;5.81;62.61;95081.50;5095045;28;20620;-76
2021/12/19 02:53:49;;;;;;;9.50;7.00;;;;;;;5.81;62.62;95084.03;5113762;28;20258;-77
2021/12/19 02:56:18;;;;;;;6.83;6.00;;;;;;;5.82;62.65;95082.31;5113225;28;20193;-76
2021/12/19 02:58:46;;;;;;;5.97;5.47;;;;;;;5.82;62.56;95080.56;5112845;28;20197;-80
2021/12/19 03:01:15;;;;;;;6.40;5.70;;;;;;;5.81;62.78;95080.69;5113740;28;20204;-75
2021/12/19 03:03:43;;;;;;;7.73;6.00;;;;;;;5.80;62.47;95077.34;5114071;28;20215;-78
2021/12/19 03:06:09;;;;;;;6.90;6.17;;;;;;;5.80;62.73;95072.25;5112268;28;20185;-76
2021/12/19 03:08:42;;;;;;;6.07;5.40;;;;;;;5.79;62.73;95075.72;5112895;28;20240;-75
2021/12/19 03:19:21;;;;;;;5.17;4.70;;;;;;;5.66;62.68;95063.00;5113143;28;20239;-74
2021/12/19 03:21:49;;;;;;;6.07;5.40;;;;;;;5.66;62.69;95068.09;5113172;28;20188;-75
2021/12/19 03:24:15;;;;;;;5.17;4.53;;;;;;;5.63;62.72;95068.28;5113502;28;20195;-75
2021/12/19 03:26:44;;;;;;;6.03;5.43;;;;;;;5.60;62.82;95068.47;5113237;28;20193;-76
2021/12/19 03:29:10;;;;;;;5.70;5.13;;;;;;;5.55;62.78;95073.03;5112972;28;20217;-77
2021/12/19 03:31:37;;;;;;;5.63;5.10;;;;;;;5.53;62.54;95075.66;5113036;28;20185;-76
2021/12/19 03:34:04;;;;;;;5.90;5.13;;;;;;;5.50;62.83;95065.72;5112342;28;20699;-75
2021/12/19 03:36:31;;;;;;;6.47;5.03;;;;;;;5.46;62.71;95063.47;5113193;28;20663;-78
2021/12/19 03:39:01;;;;;;;6.07;5.00;;;;;;;5.28;62.94;95043.44;5112482;28;20278;-73
2021/12/19 03:41:34;;;;;;;4.80;4.33;;;;;;;5.38;62.75;95061.41;5112745;28;20188;-77
2021/12/19 03:44:03;;;;;;;5.13;4.37;;;;;;;5.32;62.73;95056.75;5112689;28;20212;-74
2021/12/19 03:46:30;;;;;;;5.97;5.23;;;;;;;5.26;63.02;95046.97;5112015;28;20664;-73
2021/12/19 03:48:57;;;;;;;5.60;5.10;;;;;;;5.25;62.98;95058.84;5118736;28;20220;-74
2021/12/19 03:51:24;;;;;;;5.63;4.87;;;;;;;5.22;63.01;95055.66;5121022;28;20191;-75
2021/12/19 03:53:51;;;;;;;6.53;5.17;;;;;;;5.17;63.10;95055.97;5112654;28;20181;-74
2021/12/19 03:56:18;;;;;;;5.83;5.23;;;;;;;5.14;63.42;95050.25;5112595;28;20177;-75
2021/12/19 03:58:45;;;;;;;5.40;4.90;;;;;;;5.11;63.26;95045.41;5112068;28;20200;-73
2021/12/19 04:01:13;;;;;;;5.77;5.17;;;;;;;5.08;63.23;95046.41;5112147;28;20189;-72
2021/12/19 04:03:41;;;;;;;6.00;5.40;;;;;;;4.74;63.31;94992.75;5111704;28;20600;-74
2021/12/19 04:06:07;;;;;;;6.37;5.27;;;;;;;5.00;63.15;95039.25;5112161;28;20181;-73
2021/12/19 04:08:34;;;;;;;6.20;5.53;;;;;;;4.90;63.30;95027.28;5111746;28;20251;-73
2021/12/19 04:11:01;;;;;;;6.80;5.47;;;;;;;4.94;63.26;95033.78;5112342;28;20660;-74
2021/12/19 04:13:28;;;;;;;5.63;5.10;;;;;;;4.91;63.28;95033.97;5112224;28;20185;-74
2021/12/19 04:15:55;;;;;;;5.53;4.37;;;;;;;4.81;63.13;95022.78;5111392;28;20582;-78
2021/12/19 04:18:23;;;;;;;6.07;5.40;;;;;;;4.87;63.19;95024.94;5112134;28;20218;-76
2021/12/19 04:20:50;;;;;;;5.10;4.60;;;;;;;4.78;63.15;95014.44;5111847;28;20193;-74
2021/12/19 04:23:17;;;;;;;5.13;4.63;;;;;;;4.75;63.22;95013.84;5111901;28;20578;-77
2021/12/19 04:25:44;;;;;;;6.40;5.03;;;;;;;4.82;63.03;95019.34;5111693;28;20775;-79
2021/12/19 04:28:11;;;;;;;5.43;4.57;;;;;;;4.82;63.03;95022.69;5111910;28;20209;-74
2021/12/19 04:30:38;;;;;;;6.63;4.90;;;;;;;4.67;62.79;94988.97;5111661;28;20283;-82
2021/12/19 04:33:09;;;;;;;6.87;4.53;;;;;;;4.86;62.90;95021.56;5112658;28;20212;-74
2021/12/19 04:35:40;;;;;;;4.87;4.27;;;;;;;4.84;62.64;95008.22;5111596;28;20980;-80
2021/12/19 04:41:06;;;;;;;5.70;4.50;;;;;;;4.94;62.65;95008.44;5109336;28;20193;-78
2021/12/19 04:54:50;;;;;;;8.73;6.67;;;;;;;5.11;62.13;94994.72;4978352;28;20240;-77
2021/12/19 04:57:29;;;;;;;7.20;6.07;;;;;;;5.12;62.06;94984.47;4970055;28;20204;-77
2021/12/19 05:00:00;;;;;;;5.80;5.13;;;;;;;5.16;61.95;94992.69;4969841;28;20200;-79
2021/12/19 05:02:42;;;;;;;6.87;5.83;;;;;;;5.07;61.81;94971.28;4969695;28;20190;-80
2021/12/19 05:16:20;;;;;;;7.27;5.43;;;;;;;5.32;61.53;94997.59;4893574;29;20629;-82
2021/12/19 05:18:48;;;;;;;7.00;5.50;;;;;;;5.33;61.42;95002.56;4893408;29;20239;-82
2021/12/19 05:21:18;;;;;;;6.47;5.27;;;;;;;5.35;61.31;95003.28;4892977;29;20208;-83
2021/12/19 05:24:15;;;;;;;5.90;5.17;;;;;;;5.38;61.49;94999.75;4940734;28;20194;-80
2021/12/19 05:26:42;;;;;;;5.37;4.80;;;;;;;5.39;61.30;94994.56;4968810;28;20216;-73
2021/12/19 05:29:09;;;;;;;6.23;4.80;;;;;;;5.34;61.11;94983.09;4968524;28;20256;-75
2021/12/19 05:31:36;;;;;;;9.77;5.53;;;;;;;5.44;61.15;94997.63;4999451;28;20291;-75
2021/12/19 05:34:03;;;;;;;5.43;4.87;;;;;;;5.47;61.11;94996.59;5027642;28;20196;-74
2021/12/19 05:47:24;;;;;;;7.93;5.60;;;;;;;5.53;61.14;94991.97;5100846;28;20203;-73
2021/12/19 05:49:52;;;;;;;7.60;5.43;;;;;;;5.55;61.18;94994.38;5110280;28;20802;-73
2021/12/19 05:52:18;;;;;;;6.07;4.57;;;;;;;5.51;61.15;94982.81;5110404;28;20196;-75
2021/12/19 05:54:49;;;;;;;7.47;6.30;;;;;;;5.33;61.15;94954.41;5110170;28;20230;-74
2021/12/19 05:57:16;;;;;;;8.07;6.13;;;;;;;5.54;61.16;94985.16;5110517;28;20578;-74
2021/12/19 05:59:43;;;;;;;7.47;6.67;;;;;;;5.52;61.06;94977.63;5110029;28;20193;-73
2021/12/19 06:02:10;;;;;;;7.83;6.00;;;;;;;5.51;61.17;94977.75;5110486;28;20200;-73
2021/12/19 06:04:37;;;;;;;7.23;6.33;;;;;;;5.49;61.00;94985.47;5110184;28;20189;-75
2021/12/19 06:07:04;;;;;;;6.67;5.60;;;;;;;5.41;61.07;94969.13;5110258;28;20235;-75
2021/12/19 06:09:31;;;;;;;6.47;5.70;;;;;;;5.44;61.21;94977.34;5110732;28;20216;-74
2021/12/19 06:12:00;;;;;;;6.87;5.57;;;;;;;5.45;61.29;94968.00;5110757;28;20193;-73
2021/12/19 06:14:31;;;;;;;8.37;5.90;;;;;;;5.45;61.26;94971.34;5110080;28;20209;-73
2021/12/19 06:16:58;;;;;;;6.40;5.47;;;;;;;5.45;61.15;94965.47;5111700;28;20185;-72
2021/12/19 06:19:25;;;;;;;9.13;5.87;;;;;;;5.45;61.34;94963.75;5110565;28;20223;-76
2021/12/19 06:21:52;;;;;;;7.17;5.23;;;;;;;5.40;61.19;94955.63;5110288;28;20665;-75
2021/12/19 06:24:19;;;;;;;10.03;6.23;;;;;;;5.45;61.21;94951.06;5110453;28;20191;-74
2021/12/19 06:26:45;;;;;;;7.57;6.10;;;;;;;5.46;61.29;94949.34;5110606;28;20579;-76
2021/12/19 06:29:14;;;;;;;7.77;6.13;;;;;;;5.45;61.31;94951.06;5110294;28;20594;-75
2021/12/19 06:31:41;;;;;;;8.43;5.37;;;;;;;5.47;61.16;94939.09;5111246;28;20189;-74
2021/12/19 06:34:07;;;;;;;6.33;5.43;;;;;;;5.48;61.12;94945.78;5119909;28;20197;-75
2021/12/19 06:36:36;;;;;;;6.67;5.97;;;;;;;5.50;61.17;94940.63;5113627;28;20196;-74
2021/12/19 06:39:04;;;;;;;7.27;6.30;;;;;;;5.53;61.13;94943.75;5110780;28;20193;-73
2021/12/19 06:41:31;;;;;;;7.13;6.40;;;;;;;5.58;60.91;94940.94;5113740;28;20184;-73
2021/12/19 06:43:58;;;;;;;7.83;6.20;;;;;;;5.72;60.89;94940.81;5114140;28;20687;-73
2021/12/19 06:46:26;;;;;;;8.07;6.03;;;;;;;6.00;60.37;94938.97;5113749;28;20196;-73
2021/12/19 06:48:52;;;;;;;8.20;6.03;;;;;;;6.37;59.78;94939.81;5113820;28;20246;-74
2021/12/19 06:51:19;;;;;;;8.67;6.90;;;;;;;6.63;60.02;94909.25;5113505;28;20189;-74
2021/12/19 06:53:46;;;;;;;10.23;6.47;;;;;;;7.27;59.62;94930.88;5114702;28;20185;-76
2021/12/19 06:56:13;;;;;;;7.27;6.17;;;;;;;7.75;59.84;94932.44;5113682;28;20189;-77
2021/12/19 06:58:40;;;;;;;8.10;6.37;;;;;;;8.21;59.61;94937.44;5113617;28;20196;-77
2021/12/19 07:01:07;;;;;;;6.90;5.73;;;;;;;8.73;59.21;94937.72;5113332;28;20188;-73
2021/12/19 07:03:36;;;;;;;6.27;5.47;;;;;;;9.18;58.66;94935.00;5114265;28;20181;-76
2021/12/19 07:06:02;;;;;;;7.67;6.37;;;;;;;9.60;58.03;94932.44;5112795;28;20189;-77
2021/12/19 07:08:29;;;;;;;9.53;6.40;;;;;;;9.96;57.43;94929.41;5112914;28;20232;-77
2021/12/19 07:10:57;;;;;;;6.73;5.23;;;;;;;10.45;56.72;94932.97;5112908;28;20229;-76
2021/12/19 07:13:23;;;;;;;5.30;4.80;;;;;;;10.60;56.10;94889.13;5113088;28;20193;-80
2021/12/19 07:15:52;;;;;;;6.27;5.07;;;;;;;11.27;55.51;94937.75;5112929;28;20189;-72
2021/12/19 07:18:19;;;;;;;8.47;5.70;;;;;;;11.24;54.91;94880.91;5113199;28;20196;-75
2021/12/19 07:20:47;;;;;;;7.67;5.27;;;;;;;11.67;53.91;94930.84;5113922;28;20185;-74
2021/12/19 07:23:15;;;;;;;6.97;5.50;;;;;;;11.25;53.52;94862.03;5112934;28;20600;-77
2021/12/19 07:25:43;;;;;;;7.03;5.90;;;;;;;10.80;52.70;94773.88;5113151;28;20555;-78
2021/12/19 07:28:10;;;;;;;8.33;5.80;;;;;;;11.71;52.25;94915.03;5112756;28;20192;-76
2021/12/19 07:30:38;;;;;;;6.97;5.50;;;;;;;11.64;51.68;94924.22;5112624;28;20209;-76
2021/12/19 07:33:06;;;;;;;6.20;5.60;;;;;;;11.56;51.47;94924.09;5112513;28;20193;-77
2021/12/19 07:35:36;;;;;;;6.80;6.10;;;;;;;11.45;51.10;94924.28;5100326;28;20932;-76
2021/12/19 07:38:05;;;;;;;8.30;6.00;;;;;;;11.34;50.82;94924.41;5089428;28;20260;-77
2021/12/19 07:40:36;;;;;;;8.37;6.00;;;;;;;10.81;50.71;94856.56;5089694;28;20558;-76
2021/12/19 07:43:03;;;;;;;7.57;5.57;;;;;;;11.13;50.42;94915.13;5089845;28;20198;-76
2021/12/19 07:45:31;;;;;;;6.60;5.57;;;;;;;10.94;50.29;94910.81;5090275;28;20557;-76
2021/12/19 07:47:58;;;;;;;7.27;6.53;;;;;;;10.88;50.00;94919.03;5090017;28;20193;-76
2021/12/19 07:50:31;;;;;;;7.60;5.83;;;;;;;10.74;50.11;94917.66;5089937;28;20224;-77
2021/12/19 07:53:01;;;;;;;6.50;5.80;;;;;;;10.45;50.31;94898.94;5090096;28;20197;-75
2021/12/19 07:55:29;;;;;;;6.70;5.50;;;;;;;10.40;50.07;94908.72;5089753;28;20239;-76
2021/12/19 07:57:56;;;;;;;8.77;5.60;;;;;;;10.36;50.17;94915.03;5093464;28;20184;-74
2021/12/19 08:00:23;;;;;;;7.93;5.47;;;;;;;10.24;50.26;94919.44;5112289;28;20182;-77
2021/12/19 08:02:50;;;;;;;6.57;5.53;;;;;;;10.14;50.30;94914.25;5112149;28;20181;-75
2021/12/19 08:05:18;;;;;;;10.97;5.77;;;;;;;10.04;50.34;94910.88;5102094;28;20262;-75
2021/12/19 08:07:48;;;;;;;6.67;5.87;;;;;;;9.95;50.42;94904.00;5089082;28;20696;-77
2021/12/19 08:11:39;;;;;;;7.83;6.23;;;;;;;9.87;50.39;94898.72;5089470;28;20213;-75
2021/12/19 08:13:06;;;;;;;8.70;6.67;;;;;;;9.77;50.56;94889.25;5088787;28;20174;-76
2021/12/19 08:15:33;;;;;;;10.17;7.67;;;;;;;9.66;50.70;94870.66;5089097;28;20216;-74
2021/12/19 08:18:01;;;;;;;10.50;7.77;;;;;;;9.41;50.56;94838.69;5088580;28;20289;-74
2021/12/19 08:20:28;;;;;;;8.50;6.63;;;;;;;9.58;50.61;94867.94;5088935;28;20658;-74
2021/12/19 08:22:54;;;;;;;8.57;7.00;;;;;;;9.53;50.74;94863.19;5088698;28;20232;-72
2021/12/19 08:25:21;;;;;;;10.03;6.73;;;;;;;9.50;50.52;94861.72;5088880;28;20182;-73
2021/12/19 08:27:48;;;;;;;8.53;6.37;;;;;;;9.47;50.72;94858.63;5089060;28;20178;-73
2021/12/19 08:30:17;;;;;;;9.10;6.37;;;;;;;9.46;50.68;94854.44;5088736;28;20217;-73
2021/12/19 08:32:44;;;;;;;7.30;6.53;;;;;;;9.44;50.73;94852.00;5088721;28;20645;-74
2021/12/19 08:35:12;;;;;;;8.97;5.63;;;;;;;9.45;50.46;94855.38;5088893;28;20194;-75
2021/12/19 08:37:40;;;;;;;8.60;6.73;;;;;;;9.42;50.72;94855.63;5088608;28;20202;-74
2021/12/19 08:40:10;;;;;;;7.73;6.50;;;;;;;9.39;50.77;94854.13;5088655;28;20221;-74
2021/12/19 08:42:37;;;;;;;8.27;6.20;;;;;;;9.37;51.03;94858.56;5088986;28;20566;-72
2021/12/19 08:45:04;;;;;;;7.30;6.27;;;;;;;9.33;50.79;94856.41;5088513;28;20186;-74
2021/12/19 08:47:32;;;;;;;7.23;5.83;;;;;;;9.29;51.02;94854.09;5088941;28;20272;-73
2021/12/19 08:49:59;;;;;;;7.87;6.70;;;;;;;9.25;51.03;94850.16;5087842;28;20229;-73
2021/12/19 08:52:26;;;;;;;7.63;6.57;;;;;;;9.22;51.04;94858.06;5087981;28;20201;-73
2021/12/19 08:54:53;;;;;;;6.63;5.70;;;;;;;9.19;51.04;94857.50;5088411;28;20204;-73
2021/12/19 08:57:20;;;;;;;8.03;6.40;;;;;;;9.18;51.14;94861.00;5088262;28;20185;-73
2021/12/19 08:59:47;;;;;;;9.77;6.47;;;;;;;9.07;51.00;94844.03;5088226;28;20197;-74
2021/12/19 09:02:14;;;;;;;10.47;6.93;;;;;;;9.02;51.31;94838.47;5088017;28;20213;-73
2021/12/19 09:04:42;;;;;;;9.23;6.57;;;;;;;9.08;51.21;94855.03;5087444;28;20562;-73
2021/12/19 09:07:09;;;;;;;7.90;6.20;;;;;;;9.07;51.32;94856.78;5087824;28;20225;-73
2021/12/19 09:09:35;;;;;;;10.07;6.87;;;;;;;9.01;51.22;94847.88;5088583;28;20225;-75
2021/12/19 09:12:02;;;;;;;7.97;6.07;;;;;;;8.99;51.48;94836.19;5088766;28;20194;-76
2021/12/19 09:14:29;;;;;;;10.80;6.57;;;;;;;8.98;51.31;94837.09;5088269;28;20687;-74
2021/12/19 09:16:57;;;;;;;8.17;6.80;;;;;;;8.91;51.42;94829.16;5087882;28;20193;-73
2021/12/19 09:19:25;;;;;;;9.83;6.50;;;;;;;8.97;51.51;94835.47;5088254;28;20201;-72
2021/12/19 09:21:54;;;;;;;9.77;7.63;;;;;;;8.96;51.64;94832.13;5087881;28;20282;-75
2021/12/19 09:24:21;;;;;;;11.57;6.80;;;;;;;8.94;51.58;94828.09;5087859;28;20193;-75
2021/12/19 09:26:48;;;;;;;9.63;6.90;;;;;;;8.93;51.71;94831.56;5087624;28;20984;-73
2021/12/19 09:29:15;;;;;;;7.33;6.57;;;;;;;8.91;51.75;94818.94;5088082;28;20240;-75
2021/12/19 09:31:41;;;;;;;7.80;6.10;;;;;;;8.88;51.83;94814.09;5087524;28;20197;-76
2021/12/19 09:34:08;;;;;;;8.07;6.40;;;;;;;8.87;51.81;94812.47;5088182;28;20254;-72
2021/12/19 09:36:35;;;;;;;8.10;6.60;;;;;;;8.86;51.91;94802.41;5087866;28;20194;-77
2021/12/19 09:39:06;;;;;;;8.93;7.10;;;;;;;8.74;52.19;94781.25;5087605;28;20765;-79
2021/12/19 09:41:36;;;;;;;7.10;6.20;;;;;;;8.83;52.09;94805.19;5087657;28;20189;-80
2021/12/19 09:44:05;;;;;;;7.87;7.03;;;;;;;8.83;52.14;94795.00;5087896;28;20246;-77
2021/12/19 09:46:38;;;;;;;8.40;6.80;;;;;;;8.83;52.10;94790.69;5087920;28;20294;-75
2021/12/19 09:49:06;;;;;;;10.27;6.60;;;;;;;8.82;52.25;94784.00;5089689;28;20182;-77
2021/12/19 09:51:33;;;;;;;11.47;7.10;;;;;;;8.84;52.37;94781.31;5092671;28;20224;-77
2021/12/19 09:54:00;;;;;;;10.43;7.27;;;;;;;8.84;52.24;94771.09;5091296;28;20198;-76
2021/12/19 09:56:30;;;;;;;7.77;6.97;;;;;;;8.80;52.30;94763.69;5088305;28;20287;-76
2021/12/19 09:58:57;;;;;;;9.47;7.20;;;;;;;8.83;52.11;94760.09;5088367;28;20588;-78
2021/12/19 10:01:24;;;;;;;7.60;6.27;;;;;;;8.84;52.19;94760.91;5088104;28;20260;-78
2021/12/19 10:03:51;;;;;;;8.17;7.40;;;;;;;8.84;52.40;94748.97;5087318;28;20201;-76
2021/12/19 10:06:21;;;;;;;8.83;6.80;;;;;;;8.86;52.36;94738.66;5110194;28;20197;-76
2021/12/19 10:08:53;;;;;;;9.17;7.03;;;;;;;8.89;52.33;94730.72;5110537;28;20225;-75
2021/12/19 10:11:45;;;;;;;7.53;6.73;;;;;;;8.86;52.74;94729.25;5110331;28;20224;-75
2021/12/19 10:14:32;;;;;;;7.80;6.80;;;;;;;8.90;52.38;94724.72;5112052;28;20181;-74
2021/12/19 10:17:00;;;;;;;9.87;7.23;;;;;;;8.77;52.46;94702.78;5114683;28;20193;-74
2021/12/19 10:19:43;;;;;;;10.17;8.03;;;;;;;8.92;52.56;94718.53;5114838;28;20185;-77
2021/12/19 10:22:27;;;;;;;8.87;7.40;;;;;;;8.86;52.52;94703.75;5115035;28;20370;-75
2021/12/19 10:24:55;;;;;;;8.60;7.07;;;;;;;9.01;52.45;94720.31;5116915;28;20196;-78
2021/12/19 10:27:34;;;;;;;9.37;7.47;;;;;;;9.04;52.60;94712.44;5117475;28;20189;-77
2021/12/19 10:30:02;;;;;;;10.60;7.90;;;;;;;9.01;52.58;94706.78;5112651;28;20216;-77
2021/12/19 10:32:29;;;;;;;10.37;7.57;;;;;;;9.09;52.63;94704.38;5096392;28;20193;-78
2021/12/19 10:35:14;;;;;;;9.57;7.20;;;;;;;9.13;52.67;94705.75;5115485;28;20204;-80
2021/12/19 10:37:41;;;;;;;9.13;7.03;;;;;;;9.13;52.78;94697.28;5114111;28;20228;-75
2021/12/19 10:40:13;;;;;;;10.37;7.63;;;;;;;9.15;52.75;94695.41;5113747;28;20200;-76
2021/12/19 10:42:53;;;;;;;8.87;7.07;;;;;;;9.16;52.75;94691.94;5113482;28;20196;-76
2021/12/19 10:45:33;;;;;;;10.93;7.37;;;;;;;9.11;52.83;94671.09;5113145;28;20192;-76
2021/12/19 10:48:27;;;;;;;7.93;7.00;;;;;;;9.18;53.01;94683.19;5113872;28;20192;-74
2021/12/19 10:50:57;;;;;;;8.47;7.33;;;;;;;9.08;52.96;94663.72;5113836;28;20212;-76
2021/12/19 10:53:27;;;;;;;10.33;8.07;;;;;;;8.96;52.95;94656.16;5113248;28;20200;-76
2021/12/19 10:55:55;;;;;;;8.17;6.97;;;;;;;9.20;53.28;94683.09;5111584;28;20200;-75
2021/12/19 10:58:30;;;;;;;10.33;7.43;;;;;;;9.17;53.14;94673.13;5113845;28;20636;-75
2021/12/19 11:01:05;;;;;;;11.07;7.73;;;;;;;9.14;53.00;94660.63;5113585;28;20195;-77
2021/12/19 11:03:42;;;;;;;9.13;6.63;;;;;;;9.10;53.08;94665.19;5095482;28;20212;-77
2021/12/19 11:06:18;;;;;;;9.00;7.50;;;;;;;8.96;53.16;94645.94;5090131;28;20185;-79
2021/12/19 11:08:46;;;;;;;7.87;6.83;;;;;;;9.01;53.22;94653.22;5089710;28;20234;-80
2021/12/19 11:11:28;;;;;;;12.70;8.03;;;;;;;8.97;53.25;94649.28;5090247;28;20775;-77
2021/12/19 11:13:57;;;;;;;9.07;7.30;;;;;;;8.94;53.45;94644.47;5089672;28;20193;-77
2021/12/19 11:16:24;;;;;;;8.07;7.20;;;;;;;8.44;53.50;94565.38;5090385;28;20190;-76
2021/12/19 11:18:51;;;;;;;8.83;7.33;;;;;;;8.95;53.52;94646.09;5089743;28;20568;-74
2021/12/19 11:21:19;;;;;;;9.23;7.30;;;;;;;8.49;53.39;94564.03;5090431;28;20189;-75
2021/12/19 11:23:46;;;;;;;9.27;7.57;;;;;;;8.92;53.58;94626.72;5089920;28;20229;-75
2021/12/19 11:26:13;;;;;;;11.80;8.03;;;;;;;8.87;53.36;94616.13;5088877;28;20198;-78
2021/12/19 11:28:42;;;;;;;13.83;8.00;;;;;;;8.95;53.30;94607.81;5089769;28;20606;-75
2021/12/19 11:31:13;;;;;;;10.70;7.23;;;;;;;9.01;53.48;94625.16;5089948;28;20283;-76
2021/12/19 11:33:53;;;;;;;10.90;8.30;;;;;;;8.95;53.27;94610.38;5089864;28;20209;-75
2021/12/19 11:36:21;;;;;;;8.70;7.40;;;;;;;8.94;53.55;94612.13;5090045;28;20188;-76
2021/12/19 11:38:48;;;;;;;8.27;7.10;;;;;;;9.02;53.30;94630.16;5089176;28;20205;-77
2021/12/19 11:41:15;;;;;;;9.67;7.97;;;;;;;8.97;53.24;94616.16;5089588;28;20227;-76
2021/12/19 11:43:44;;;;;;;9.60;7.57;;;;;;;8.73;53.35;94575.69;5089782;28;20208;-77
2021/12/19 11:46:18;;;;;;;10.17;7.47;;;;;;;8.99;53.16;94611.72;5089661;28;20266;-76
2021/12/19 11:48:45;;;;;;;9.53;8.17;;;;;;;8.97;53.17;94605.94;5089412;28;20256;-75
2021/12/19 11:51:19;;;;;;;10.23;7.87;;;;;;;8.94;53.40;94601.94;5089566;28;20231;-75
2021/12/19 11:53:46;;;;;;;11.53;7.73;;;;;;;8.92;53.39;94595.34;5089155;28;20291;-77
2021/12/19 11:56:16;;;;;;;12.07;8.67;;;;;;;8.91;53.42;94594.53;5089304;28;20197;-73
2021/12/19 11:58:48;;;;;;;10.27;7.20;;;;;;;8.83;53.34;94576.50;5089497;28;20671;-77
2021/12/19 12:01:24;;;;;;;10.97;8.67;;;;;;;8.80;53.50;94576.75;5089542;28;20189;-76
2021/12/19 12:03:58;;;;;;;8.70;7.80;;;;;;;8.77;53.54;94567.66;5089210;28;20193;-78
2021/12/19 12:06:37;;;;;;;9.47;7.87;;;;;;;8.80;53.38;94576.75;5106854;28;20717;-77
2021/12/19 12:09:14;;;;;;;12.57;8.50;;;;;;;8.77;53.40;94574.50;5108722;28;20654;-75
2021/12/19 12:12:03;;;;;;;13.57;8.50;;;;;;;8.74;53.82;94572.19;5109837;28;20273;-76
2021/12/19 12:14:34;;;;;;;10.93;8.27;;;;;;;8.60;53.51;94547.88;5109248;28;20220;-75
2021/12/19 12:17:08;;;;;;;10.83;8.27;;;;;;;8.66;53.88;94561.84;5108450;28;20193;-75
2021/12/19 12:19:41;;;;;;;11.87;8.50;;;;;;;8.62;53.92;94557.94;5111423;28;20787;-76
2021/12/19 12:22:43;;;;;;;7.87;7.07;;;;;;;8.58;54.08;94552.28;5111684;28;20264;-77
2021/12/19 12:25:17;;;;;;;10.03;7.90;;;;;;;8.56;54.03;94551.63;5111323;28;20193;-79
2021/12/19 12:27:50;;;;;;;9.67;8.43;;;;;;;8.52;54.00;94551.06;5111276;28;20693;-76
2021/12/19 12:30:20;;;;;;;10.33;8.17;;;;;;;8.47;54.18;94537.91;5111718;28;20197;-77
2021/12/19 12:32:48;;;;;;;11.67;8.33;;;;;;;8.49;54.34;94530.13;5111443;28;20272;-75
2021/12/19 12:35:17;;;;;;;13.40;9.83;;;;;;;8.47;54.50;94524.34;5111699;28;20663;-76
2021/12/19 12:37:45;;;;;;;15.47;10.57;;;;;;;8.39;54.60;94511.44;5111073;28;20190;-76
2021/12/19 12:40:22;;;;;;;12.97;10.43;;;;;;;8.44;54.62;94512.66;5111268;28;20199;-77
2021/12/19 12:43:05;;;;;;;16.47;10.03;;;;;;;8.27;54.60;94483.47;5111189;28;20188;-77
2021/12/19 12:45:52;;;;;;;17.63;11.77;;;;;;;8.40;54.97;94510.50;5111229;28;20232;-79